sensor_id;sensor_type;location;lat;lon;timestamp;temperature;humidity
68480;DHT22;55469;48.934;12.050;2023-09-19T00:00:46;19.00;91.60
68480;DHT22;55469;48.934;12.050;2023-09-19T00:03:15;19.00;91.60
68480;DHT22;55469;48.934;12.050;2023-09-19T00:05:41;19.10;91.60
68480;DHT22;55469;48.934;12.050;2023-09-19T00:08:10;19.00;91.60
68480;DHT22;55469;48.934;12.050;2023-09-19T00:10:36;19.00;92.10
68480;DHT22;55469;48.934;12.050;2023-09-19T00:13:04;19.00;91.60
68480;DHT22;55469;48.934;12.050;2023-09-19T00:15:35;19.00;91.70
68480;DHT22;55469;48.934;12.050;2023-09-19T00:18:03;19.00;91.70
68480;DHT22;55469;48.934;12.050;2023-09-19T00:20:32;19.00;91.70
68480;DHT22;55469;48.934;12.050;2023-09-19T00:23:00;19.00;91.60
68480;DHT22;55469;48.934;12.050;2023-09-19T00:25:34;19.00;91.60
68480;DHT22;55469;48.934;12.050;2023-09-19T00:28:01;18.90;91.60
68480;DHT22;55469;48.934;12.050;2023-09-19T00:30:27;18.90;91.60
68480;DHT22;55469;48.934;12.050;2023-09-19T00:32:53;18.90;91.70
68480;DHT22;55469;48.934;12.050;2023-09-19T00:35:18;18.90;91.60
68480;DHT22;55469;48.934;12.050;2023-09-19T00:37:44;18.90;91.60
68480;DHT22;55469;48.934;12.050;2023-09-19T00:40:11;18.90;91.60
68480;DHT22;55469;48.934;12.050;2023-09-19T00:42:41;18.90;91.60
68480;DHT22;55469;48.934;12.050;2023-09-19T00:45:12;18.80;91.60
68480;DHT22;55469;48.934;12.050;2023-09-19T00:47:40;18.90;91.60
68480;DHT22;55469;48.934;12.050;2023-09-19T00:50:08;18.90;91.70
68480;DHT22;55469;48.934;12.050;2023-09-19T00:52:36;18.80;91.60
68480;DHT22;55469;48.934;12.050;2023-09-19T00:55:05;18.80;91.60
68480;DHT22;55469;48.934;12.050;2023-09-19T00:57:32;18.80;91.60
68480;DHT22;55469;48.934;12.050;2023-09-19T00:59:58;18.80;91.60
68480;DHT22;55469;48.934;12.050;2023-09-19T01:02:25;18.80;91.60
68480;DHT22;55469;48.934;12.050;2023-09-19T01:04:54;18.80;91.60
68480;DHT22;55469;48.934;12.050;2023-09-19T01:07:20;18.80;91.50
68480;DHT22;55469;48.934;12.050;2023-09-19T01:09:48;18.80;91.50
68480;DHT22;55469;48.934;12.050;2023-09-19T01:12:24;18.80;91.60
68480;DHT22;55469;48.934;12.050;2023-09-19T01:15:45;18.80;91.50
68480;DHT22;55469;48.934;12.050;2023-09-19T01:18:21;18.80;91.60
68480;DHT22;55469;48.934;12.050;2023-09-19T01:24:04;18.80;91.60
68480;DHT22;55469;48.934;12.050;2023-09-19T01:29:39;18.70;91.50
68480;DHT22;55469;48.934;12.050;2023-09-19T01:32:10;18.70;91.60
68480;DHT22;55469;48.934;12.050;2023-09-19T01:34:48;18.70;91.50
68480;DHT22;55469;48.934;12.050;2023-09-19T01:37:20;18.70;91.50
68480;DHT22;55469;48.934;12.050;2023-09-19T01:39:56;18.70;91.50
68480;DHT22;55469;48.934;12.050;2023-09-19T01:46:03;18.70;91.60
68480;DHT22;55469;48.934;12.050;2023-09-19T01:52:02;18.70;91.50
68480;DHT22;55469;48.934;12.050;2023-09-19T01:54:36;18.70;91.50
68480;DHT22;55469;48.934;12.050;2023-09-19T01:57:20;18.70;91.50
68480;DHT22;55469;48.934;12.050;2023-09-19T02:00:12;18.70;91.50
68480;DHT22;55469;48.934;12.050;2023-09-19T02:02:40;18.70;91.50
68480;DHT22;55469;48.934;12.050;2023-09-19T02:05:08;18.60;91.40
68480;DHT22;55469;48.934;12.050;2023-09-19T02:07:34;18.60;91.40
68480;DHT22;55469;48.934;12.050;2023-09-19T02:10:04;18.60;91.40
68480;DHT22;55469;48.934;12.050;2023-09-19T02:12:31;18.60;91.50
68480;DHT22;55469;48.934;12.050;2023-09-19T02:14:58;18.60;91.50
68480;DHT22;55469;48.934;12.050;2023-09-19T02:17:25;18.60;91.50
68480;DHT22;55469;48.934;12.050;2023-09-19T02:19:54;18.60;91.40
68480;DHT22;55469;48.934;12.050;2023-09-19T02:22:21;18.60;91.40
68480;DHT22;55469;48.934;12.050;2023-09-19T02:24:48;18.60;91.40
68480;DHT22;55469;48.934;12.050;2023-09-19T02:27:14;18.60;91.30
68480;DHT22;55469;48.934;12.050;2023-09-19T02:29:42;18.60;91.40
68480;DHT22;55469;48.934;12.050;2023-09-19T02:32:07;18.60;91.40
68480;DHT22;55469;48.934;12.050;2023-09-19T02:34:35;18.60;91.40
68480;DHT22;55469;48.934;12.050;2023-09-19T02:37:05;18.60;91.40
68480;DHT22;55469;48.934;12.050;2023-09-19T02:39:32;18.60;91.40
68480;DHT22;55469;48.934;12.050;2023-09-19T02:41:57;18.60;91.40
68480;DHT22;55469;48.934;12.050;2023-09-19T02:44:23;18.60;91.40
68480;DHT22;55469;48.934;12.050;2023-09-19T02:46:49;18.60;91.40
68480;DHT22;55469;48.934;12.050;2023-09-19T02:49:16;18.50;91.40
68480;DHT22;55469;48.934;12.050;2023-09-19T02:51:43;18.50;91.40
68480;DHT22;55469;48.934;12.050;2023-09-19T02:54:09;18.50;91.40
68480;DHT22;55469;48.934;12.050;2023-09-19T02:56:35;18.50;91.40
68480;DHT22;55469;48.934;12.050;2023-09-19T02:59:02;18.50;91.30
68480;DHT22;55469;48.934;12.050;2023-09-19T03:01:28;18.50;91.40
68480;DHT22;55469;48.934;12.050;2023-09-19T03:03:54;18.50;91.40
68480;DHT22;55469;48.934;12.050;2023-09-19T03:06:20;18.50;91.30
68480;DHT22;55469;48.934;12.050;2023-09-19T03:08:47;18.50;91.40
68480;DHT22;55469;48.934;12.050;2023-09-19T03:11:15;18.50;91.50
68480;DHT22;55469;48.934;12.050;2023-09-19T03:13:41;18.50;91.50
68480;DHT22;55469;48.934;12.050;2023-09-19T03:16:08;18.50;91.50
68480;DHT22;55469;48.934;12.050;2023-09-19T03:18:34;18.50;91.40
68480;DHT22;55469;48.934;12.050;2023-09-19T03:21:00;18.50;91.40
68480;DHT22;55469;48.934;12.050;2023-09-19T03:23:27;18.50;91.50
68480;DHT22;55469;48.934;12.050;2023-09-19T03:25:53;18.50;91.40
68480;DHT22;55469;48.934;12.050;2023-09-19T03:28:20;18.50;91.40
68480;DHT22;55469;48.934;12.050;2023-09-19T03:30:57;18.50;91.50
68480;DHT22;55469;48.934;12.050;2023-09-19T03:33:26;18.50;91.50
68480;DHT22;55469;48.934;12.050;2023-09-19T03:35:54;18.50;91.40
68480;DHT22;55469;48.934;12.050;2023-09-19T03:38:20;18.40;91.40
68480;DHT22;55469;48.934;12.050;2023-09-19T03:40:47;18.40;91.50
68480;DHT22;55469;48.934;12.050;2023-09-19T03:43:14;18.40;91.50
68480;DHT22;55469;48.934;12.050;2023-09-19T03:45:40;18.40;91.40
68480;DHT22;55469;48.934;12.050;2023-09-19T03:48:09;18.40;91.40
68480;DHT22;55469;48.934;12.050;2023-09-19T03:50:36;18.40;91.50
68480;DHT22;55469;48.934;12.050;2023-09-19T03:53:02;18.40;91.40
68480;DHT22;55469;48.934;12.050;2023-09-19T03:55:28;18.40;91.50
68480;DHT22;55469;48.934;12.050;2023-09-19T03:57:55;18.40;91.40
68480;DHT22;55469;48.934;12.050;2023-09-19T04:00:23;18.40;91.50
68480;DHT22;55469;48.934;12.050;2023-09-19T04:02:52;18.40;91.40
68480;DHT22;55469;48.934;12.050;2023-09-19T04:05:18;18.40;91.40
68480;DHT22;55469;48.934;12.050;2023-09-19T04:07:44;18.40;91.40
68480;DHT22;55469;48.934;12.050;2023-09-19T04:10:10;18.40;91.50
68480;DHT22;55469;48.934;12.050;2023-09-19T04:12:40;18.40;91.60
68480;DHT22;55469;48.934;12.050;2023-09-19T04:15:07;18.30;91.50
68480;DHT22;55469;48.934;12.050;2023-09-19T04:17:33;18.30;91.50
68480;DHT22;55469;48.934;12.050;2023-09-19T04:19:59;18.30;91.40
68480;DHT22;55469;48.934;12.050;2023-09-19T04:22:25;18.30;91.50
68480;DHT22;55469;48.934;12.050;2023-09-19T04:24:51;18.30;91.50
68480;DHT22;55469;48.934;12.050;2023-09-19T04:27:16;18.30;91.50
68480;DHT22;55469;48.934;12.050;2023-09-19T04:29:44;18.30;91.50
68480;DHT22;55469;48.934;12.050;2023-09-19T04:32:10;18.30;91.50
68480;DHT22;55469;48.934;12.050;2023-09-19T04:34:36;18.30;91.60
68480;DHT22;55469;48.934;12.050;2023-09-19T04:37:02;18.30;91.50
68480;DHT22;55469;48.934;12.050;2023-09-19T04:39:29;18.30;91.50
68480;DHT22;55469;48.934;12.050;2023-09-19T04:41:55;18.30;91.50
68480;DHT22;55469;48.934;12.050;2023-09-19T04:44:20;18.30;91.60
68480;DHT22;55469;48.934;12.050;2023-09-19T04:46:46;18.30;91.50
68480;DHT22;55469;48.934;12.050;2023-09-19T04:49:12;18.20;91.50
68480;DHT22;55469;48.934;12.050;2023-09-19T04:51:39;18.20;91.50
68480;DHT22;55469;48.934;12.050;2023-09-19T04:54:05;18.20;91.50
68480;DHT22;55469;48.934;12.050;2023-09-19T04:56:32;18.20;91.60
68480;DHT22;55469;48.934;12.050;2023-09-19T04:58:58;18.20;91.60
68480;DHT22;55469;48.934;12.050;2023-09-19T05:01:24;18.20;91.50
68480;DHT22;55469;48.934;12.050;2023-09-19T05:03:50;18.20;91.60
68480;DHT22;55469;48.934;12.050;2023-09-19T05:06:20;18.20;91.50
68480;DHT22;55469;48.934;12.050;2023-09-19T05:08:49;18.20;91.60
68480;DHT22;55469;48.934;12.050;2023-09-19T05:11:21;18.20;91.50
68480;DHT22;55469;48.934;12.050;2023-09-19T05:13:48;18.20;91.60
68480;DHT22;55469;48.934;12.050;2023-09-19T05:16:18;18.20;91.60
68480;DHT22;55469;48.934;12.050;2023-09-19T05:18:44;18.20;91.70
68480;DHT22;55469;48.934;12.050;2023-09-19T05:21:10;18.20;91.60
68480;DHT22;55469;48.934;12.050;2023-09-19T05:23:35;18.10;91.60
68480;DHT22;55469;48.934;12.050;2023-09-19T05:26:02;18.20;91.50
68480;DHT22;55469;48.934;12.050;2023-09-19T05:28:29;18.20;91.50
68480;DHT22;55469;48.934;12.050;2023-09-19T05:30:55;18.10;91.60
68480;DHT22;55469;48.934;12.050;2023-09-19T05:33:21;18.20;92.00
68480;DHT22;55469;48.934;12.050;2023-09-19T05:35:49;18.10;91.50
68480;DHT22;55469;48.934;12.050;2023-09-19T05:38:15;18.10;91.50
68480;DHT22;55469;48.934;12.050;2023-09-19T05:40:45;18.10;91.50
68480;DHT22;55469;48.934;12.050;2023-09-19T05:43:11;18.10;91.50
68480;DHT22;55469;48.934;12.050;2023-09-19T05:45:37;18.10;91.50
68480;DHT22;55469;48.934;12.050;2023-09-19T05:48:11;18.10;91.50
68480;DHT22;55469;48.934;12.050;2023-09-19T05:50:39;18.10;91.50
68480;DHT22;55469;48.934;12.050;2023-09-19T05:53:05;18.10;91.50
68480;DHT22;55469;48.934;12.050;2023-09-19T05:55:32;18.10;91.50
68480;DHT22;55469;48.934;12.050;2023-09-19T05:57:58;18.10;91.40
68480;DHT22;55469;48.934;12.050;2023-09-19T06:00:24;18.10;91.50
68480;DHT22;55469;48.934;12.050;2023-09-19T06:02:57;18.10;91.50
68480;DHT22;55469;48.934;12.050;2023-09-19T06:05:26;18.10;91.50
68480;DHT22;55469;48.934;12.050;2023-09-19T06:07:53;18.10;91.50
68480;DHT22;55469;48.934;12.050;2023-09-19T06:10:19;18.10;91.50
68480;DHT22;55469;48.934;12.050;2023-09-19T06:12:48;18.10;91.40
68480;DHT22;55469;48.934;12.050;2023-09-19T06:15:15;18.10;91.40
68480;DHT22;55469;48.934;12.050;2023-09-19T06:17:48;18.10;91.40
68480;DHT22;55469;48.934;12.050;2023-09-19T06:20:14;18.10;91.50
68480;DHT22;55469;48.934;12.050;2023-09-19T06:22:45;18.00;91.40
68480;DHT22;55469;48.934;12.050;2023-09-19T06:25:12;18.10;91.40
68480;DHT22;55469;48.934;12.050;2023-09-19T06:27:45;18.10;91.40
68480;DHT22;55469;48.934;12.050;2023-09-19T06:30:14;18.00;91.30
68480;DHT22;55469;48.934;12.050;2023-09-19T06:32:43;18.10;91.40
68480;DHT22;55469;48.934;12.050;2023-09-19T06:35:13;18.00;91.40
68480;DHT22;55469;48.934;12.050;2023-09-19T06:37:40;18.00;91.40
68480;DHT22;55469;48.934;12.050;2023-09-19T06:40:10;18.00;91.40
68480;DHT22;55469;48.934;12.050;2023-09-19T06:45:07;18.00;91.50
68480;DHT22;55469;48.934;12.050;2023-09-19T06:47:34;18.00;91.40
68480;DHT22;55469;48.934;12.050;2023-09-19T06:50:00;18.00;91.40
68480;DHT22;55469;48.934;12.050;2023-09-19T06:52:28;18.00;91.60
68480;DHT22;55469;48.934;12.050;2023-09-19T06:54:53;18.00;91.50
68480;DHT22;55469;48.934;12.050;2023-09-19T06:57:19;18.00;91.60
68480;DHT22;55469;48.934;12.050;2023-09-19T06:59:45;18.00;91.50
68480;DHT22;55469;48.934;12.050;2023-09-19T07:02:11;18.00;91.50
68480;DHT22;55469;48.934;12.050;2023-09-19T07:04:38;18.00;91.50
68480;DHT22;55469;48.934;12.050;2023-09-19T07:07:04;18.00;91.50
68480;DHT22;55469;48.934;12.050;2023-09-19T07:09:30;18.00;91.40
68480;DHT22;55469;48.934;12.050;2023-09-19T07:11:55;18.00;91.50
68480;DHT22;55469;48.934;12.050;2023-09-19T07:14:21;18.00;91.40
68480;DHT22;55469;48.934;12.050;2023-09-19T07:16:47;18.00;91.50
68480;DHT22;55469;48.934;12.050;2023-09-19T07:19:14;18.00;91.50
68480;DHT22;55469;48.934;12.050;2023-09-19T07:21:40;18.00;91.50
68480;DHT22;55469;48.934;12.050;2023-09-19T07:24:07;18.00;91.60
68480;DHT22;55469;48.934;12.050;2023-09-19T07:26:34;18.10;91.70
68480;DHT22;55469;48.934;12.050;2023-09-19T07:29:00;18.10;91.80
68480;DHT22;55469;48.934;12.050;2023-09-19T07:31:29;18.10;91.70
68480;DHT22;55469;48.934;12.050;2023-09-19T07:33:55;18.10;91.80
68480;DHT22;55469;48.934;12.050;2023-09-19T07:36:21;18.10;91.90
68480;DHT22;55469;48.934;12.050;2023-09-19T07:38:47;18.10;91.80
68480;DHT22;55469;48.934;12.050;2023-09-19T07:41:13;18.10;91.70
68480;DHT22;55469;48.934;12.050;2023-09-19T07:43:39;18.10;91.70
68480;DHT22;55469;48.934;12.050;2023-09-19T07:46:08;18.10;91.70
68480;DHT22;55469;48.934;12.050;2023-09-19T07:48:37;18.10;91.60
68480;DHT22;55469;48.934;12.050;2023-09-19T07:51:05;18.10;91.80
68480;DHT22;55469;48.934;12.050;2023-09-19T07:53:31;18.10;91.60
68480;DHT22;55469;48.934;12.050;2023-09-19T07:56:07;18.10;91.80
68480;DHT22;55469;48.934;12.050;2023-09-19T07:58:35;18.10;91.80
68480;DHT22;55469;48.934;12.050;2023-09-19T08:01:06;18.10;91.80
68480;DHT22;55469;48.934;12.050;2023-09-19T08:03:33;18.10;91.80
68480;DHT22;55469;48.934;12.050;2023-09-19T08:06:00;18.10;91.70
68480;DHT22;55469;48.934;12.050;2023-09-19T08:08:26;18.20;91.80
68480;DHT22;55469;48.934;12.050;2023-09-19T08:10:54;18.20;91.70
68480;DHT22;55469;48.934;12.050;2023-09-19T08:13:25;18.20;91.80
68480;DHT22;55469;48.934;12.050;2023-09-19T08:15:51;18.20;91.80
68480;DHT22;55469;48.934;12.050;2023-09-19T08:18:20;18.20;91.90
68480;DHT22;55469;48.934;12.050;2023-09-19T08:20:50;18.20;91.70
68480;DHT22;55469;48.934;12.050;2023-09-19T08:23:16;18.20;91.70
68480;DHT22;55469;48.934;12.050;2023-09-19T08:25:46;18.20;91.80
68480;DHT22;55469;48.934;12.050;2023-09-19T08:28:12;18.20;91.90
68480;DHT22;55469;48.934;12.050;2023-09-19T08:30:43;18.20;91.80
68480;DHT22;55469;48.934;12.050;2023-09-19T08:33:09;18.20;91.80
68480;DHT22;55469;48.934;12.050;2023-09-19T08:35:34;18.30;91.90
68480;DHT22;55469;48.934;12.050;2023-09-19T08:38:01;18.30;91.90
68480;DHT22;55469;48.934;12.050;2023-09-19T08:40:30;18.20;91.90
68480;DHT22;55469;48.934;12.050;2023-09-19T08:42:59;18.30;91.90
68480;DHT22;55469;48.934;12.050;2023-09-19T08:45:26;18.30;92.00
68480;DHT22;55469;48.934;12.050;2023-09-19T08:53:45;18.30;92.00
68480;DHT22;55469;48.934;12.050;2023-09-19T08:56:29;18.40;91.90
68480;DHT22;55469;48.934;12.050;2023-09-19T08:59:01;18.40;92.00
68480;DHT22;55469;48.934;12.050;2023-09-19T09:01:31;18.40;91.90
68480;DHT22;55469;48.934;12.050;2023-09-19T09:03:58;18.40;91.90
68480;DHT22;55469;48.934;12.050;2023-09-19T09:06:25;18.40;91.90
68480;DHT22;55469;48.934;12.050;2023-09-19T09:08:51;18.40;92.00
68480;DHT22;55469;48.934;12.050;2023-09-19T09:11:19;18.40;91.90
68480;DHT22;55469;48.934;12.050;2023-09-19T09:13:47;18.40;92.00
68480;DHT22;55469;48.934;12.050;2023-09-19T09:16:14;18.40;91.90
68480;DHT22;55469;48.934;12.050;2023-09-19T09:18:44;18.40;92.00
68480;DHT22;55469;48.934;12.050;2023-09-19T09:21:11;18.40;91.90
68480;DHT22;55469;48.934;12.050;2023-09-19T09:23:41;18.50;91.90
68480;DHT22;55469;48.934;12.050;2023-09-19T09:26:06;18.40;92.00
68480;DHT22;55469;48.934;12.050;2023-09-19T09:28:35;18.50;92.00
68480;DHT22;55469;48.934;12.050;2023-09-19T09:31:02;18.50;92.00
68480;DHT22;55469;48.934;12.050;2023-09-19T09:33:35;18.50;92.60
68480;DHT22;55469;48.934;12.050;2023-09-19T09:36:02;18.50;92.10
68480;DHT22;55469;48.934;12.050;2023-09-19T09:38:42;18.50;92.10
68480;DHT22;55469;48.934;12.050;2023-09-19T09:41:09;18.50;92.10
68480;DHT22;55469;48.934;12.050;2023-09-19T09:43:38;18.50;92.00
68480;DHT22;55469;48.934;12.050;2023-09-19T09:46:13;18.50;91.90
68480;DHT22;55469;48.934;12.050;2023-09-19T09:49:01;18.50;91.90
68480;DHT22;55469;48.934;12.050;2023-09-19T09:51:40;18.50;91.90
68480;DHT22;55469;48.934;12.050;2023-09-19T09:54:18;18.50;91.90
68480;DHT22;55469;48.934;12.050;2023-09-19T09:57:00;18.50;92.00
68480;DHT22;55469;48.934;12.050;2023-09-19T10:02:14;18.50;91.90
68480;DHT22;55469;48.934;12.050;2023-09-19T10:04:45;18.50;91.90
68480;DHT22;55469;48.934;12.050;2023-09-19T10:07:29;18.50;91.90
68480;DHT22;55469;48.934;12.050;2023-09-19T10:10:05;18.50;91.70
68480;DHT22;55469;48.934;12.050;2023-09-19T10:12:54;18.50;91.80
68480;DHT22;55469;48.934;12.050;2023-09-19T10:15:24;18.50;91.70
68480;DHT22;55469;48.934;12.050;2023-09-19T10:17:52;18.50;91.80
68480;DHT22;55469;48.934;12.050;2023-09-19T10:20:24;18.50;91.80
68480;DHT22;55469;48.934;12.050;2023-09-19T10:23:11;18.50;91.70
68480;DHT22;55469;48.934;12.050;2023-09-19T10:25:41;18.50;91.60
68480;DHT22;55469;48.934;12.050;2023-09-19T10:28:10;18.50;91.70
68480;DHT22;55469;48.934;12.050;2023-09-19T10:30:44;18.50;91.80
68480;DHT22;55469;48.934;12.050;2023-09-19T10:33:25;18.50;91.80
68480;DHT22;55469;48.934;12.050;2023-09-19T10:35:52;18.40;91.90
68480;DHT22;55469;48.934;12.050;2023-09-19T10:38:19;18.40;91.70
68480;DHT22;55469;48.934;12.050;2023-09-19T10:40:52;18.40;91.70
68480;DHT22;55469;48.934;12.050;2023-09-19T10:43:20;18.50;91.80
68480;DHT22;55469;48.934;12.050;2023-09-19T10:45:48;18.50;91.80
68480;DHT22;55469;48.934;12.050;2023-09-19T10:48:16;18.50;91.80
68480;DHT22;55469;48.934;12.050;2023-09-19T10:53:56;18.50;91.90
68480;DHT22;55469;48.934;12.050;2023-09-19T10:56:30;18.50;91.90
68480;DHT22;55469;48.934;12.050;2023-09-19T10:59:18;18.50;91.90
68480;DHT22;55469;48.934;12.050;2023-09-19T11:01:55;18.50;91.90
68480;DHT22;55469;48.934;12.050;2023-09-19T11:04:33;18.50;91.90
68480;DHT22;55469;48.934;12.050;2023-09-19T11:07:06;18.50;92.00
68480;DHT22;55469;48.934;12.050;2023-09-19T11:09:54;18.50;91.90
68480;DHT22;55469;48.934;12.050;2023-09-19T11:26:50;18.60;91.90
68480;DHT22;55469;48.934;12.050;2023-09-19T11:29:30;18.60;91.80
68480;DHT22;55469;48.934;12.050;2023-09-19T11:31:57;18.60;91.80
68480;DHT22;55469;48.934;12.050;2023-09-19T11:40:25;18.60;91.80
68480;DHT22;55469;48.934;12.050;2023-09-19T11:42:43;18.60;91.70
68480;DHT22;55469;48.934;12.050;2023-09-19T11:48:18;18.60;91.70
68480;DHT22;55469;48.934;12.050;2023-09-19T11:50:45;18.60;91.70
68480;DHT22;55469;48.934;12.050;2023-09-19T11:53:13;18.70;91.70
68480;DHT22;55469;48.934;12.050;2023-09-19T11:55:39;18.70;91.70
68480;DHT22;55469;48.934;12.050;2023-09-19T11:58:08;18.70;91.70
68480;DHT22;55469;48.934;12.050;2023-09-19T12:00:35;18.70;91.60
68480;DHT22;55469;48.934;12.050;2023-09-19T12:03:11;18.70;91.80
68480;DHT22;55469;48.934;12.050;2023-09-19T12:05:39;18.80;91.80
68480;DHT22;55469;48.934;12.050;2023-09-19T12:08:05;18.80;91.70
68480;DHT22;55469;48.934;12.050;2023-09-19T12:10:48;18.70;91.70
68480;DHT22;55469;48.934;12.050;2023-09-19T12:13:20;18.80;91.50
68480;DHT22;55469;48.934;12.050;2023-09-19T12:15:46;18.80;91.60
68480;DHT22;55469;48.934;12.050;2023-09-19T12:18:30;18.80;91.60
68480;DHT22;55469;48.934;12.050;2023-09-19T12:20:56;18.80;91.50
68480;DHT22;55469;48.934;12.050;2023-09-19T12:23:24;18.80;91.50
68480;DHT22;55469;48.934;12.050;2023-09-19T12:25:51;18.90;91.60
68480;DHT22;55469;48.934;12.050;2023-09-19T12:28:19;18.90;91.60
68480;DHT22;55469;48.934;12.050;2023-09-19T12:30:48;18.90;91.50
68480;DHT22;55469;48.934;12.050;2023-09-19T12:33:21;18.90;91.60
68480;DHT22;55469;48.934;12.050;2023-09-19T12:35:50;18.90;91.60
68480;DHT22;55469;48.934;12.050;2023-09-19T12:38:27;18.90;91.50
68480;DHT22;55469;48.934;12.050;2023-09-19T12:41:01;18.90;91.60
68480;DHT22;55469;48.934;12.050;2023-09-19T12:43:32;19.00;91.50
68480;DHT22;55469;48.934;12.050;2023-09-19T12:45:59;19.00;91.50
68480;DHT22;55469;48.934;12.050;2023-09-19T12:48:26;19.00;91.50
68480;DHT22;55469;48.934;12.050;2023-09-19T12:51:10;19.10;91.50
68480;DHT22;55469;48.934;12.050;2023-09-19T12:53:42;19.00;91.60
68480;DHT22;55469;48.934;12.050;2023-09-19T12:56:11;19.10;91.50
68480;DHT22;55469;48.934;12.050;2023-09-19T12:58:52;19.10;91.60
68480;DHT22;55469;48.934;12.050;2023-09-19T13:01:25;19.10;91.50
68480;DHT22;55469;48.934;12.050;2023-09-19T13:06:52;19.10;91.40
68480;DHT22;55469;48.934;12.050;2023-09-19T13:09:22;19.10;91.40
68480;DHT22;55469;48.934;12.050;2023-09-19T13:11:59;19.20;91.50
68480;DHT22;55469;48.934;12.050;2023-09-19T13:14:26;19.20;91.40
68480;DHT22;55469;48.934;12.050;2023-09-19T13:16:57;19.20;91.40
68480;DHT22;55469;48.934;12.050;2023-09-19T13:25:17;19.20;91.40
68480;DHT22;55469;48.934;12.050;2023-09-19T13:27:51;19.30;91.40
68480;DHT22;55469;48.934;12.050;2023-09-19T13:30:20;19.30;91.50
68480;DHT22;55469;48.934;12.050;2023-09-19T13:32:46;19.30;91.40
68480;DHT22;55469;48.934;12.050;2023-09-19T13:35:13;19.30;91.40
68480;DHT22;55469;48.934;12.050;2023-09-19T13:37:41;19.40;91.40
68480;DHT22;55469;48.934;12.050;2023-09-19T13:40:12;19.30;91.40
68480;DHT22;55469;48.934;12.050;2023-09-19T13:42:40;19.40;91.30
68480;DHT22;55469;48.934;12.050;2023-09-19T13:45:07;19.40;91.30
68480;DHT22;55469;48.934;12.050;2023-09-19T13:47:33;19.40;91.30
68480;DHT22;55469;48.934;12.050;2023-09-19T13:50:01;19.40;91.30
68480;DHT22;55469;48.934;12.050;2023-09-19T13:52:29;19.50;91.30
68480;DHT22;55469;48.934;12.050;2023-09-19T13:54:58;19.50;91.30
68480;DHT22;55469;48.934;12.050;2023-09-19T13:57:27;19.50;91.20
68480;DHT22;55469;48.934;12.050;2023-09-19T13:59:54;19.40;91.70
68480;DHT22;55469;48.934;12.050;2023-09-19T14:02:21;19.50;91.30
68480;DHT22;55469;48.934;12.050;2023-09-19T14:04:51;19.50;91.40
68480;DHT22;55469;48.934;12.050;2023-09-19T14:07:17;19.50;91.20
68480;DHT22;55469;48.934;12.050;2023-09-19T14:09:45;19.50;91.20
68480;DHT22;55469;48.934;12.050;2023-09-19T14:12:11;19.50;91.40
68480;DHT22;55469;48.934;12.050;2023-09-19T14:14:37;19.60;91.30
68480;DHT22;55469;48.934;12.050;2023-09-19T14:17:04;19.60;91.20
68480;DHT22;55469;48.934;12.050;2023-09-19T14:19:30;19.60;91.30
68480;DHT22;55469;48.934;12.050;2023-09-19T14:21:56;19.60;91.20
68480;DHT22;55469;48.934;12.050;2023-09-19T14:24:22;19.60;91.20
68480;DHT22;55469;48.934;12.050;2023-09-19T14:26:49;19.60;91.20
68480;DHT22;55469;48.934;12.050;2023-09-19T14:29:16;19.60;91.10
68480;DHT22;55469;48.934;12.050;2023-09-19T14:31:42;19.70;91.10
68480;DHT22;55469;48.934;12.050;2023-09-19T14:34:08;19.60;91.00
68480;DHT22;55469;48.934;12.050;2023-09-19T14:36:37;19.70;91.10
68480;DHT22;55469;48.934;12.050;2023-09-19T14:39:06;19.70;91.00
68480;DHT22;55469;48.934;12.050;2023-09-19T14:41:33;19.70;91.00
68480;DHT22;55469;48.934;12.050;2023-09-19T14:43:59;19.70;91.00
68480;DHT22;55469;48.934;12.050;2023-09-19T14:46:25;19.70;91.00
68480;DHT22;55469;48.934;12.050;2023-09-19T14:48:51;19.80;91.00
68480;DHT22;55469;48.934;12.050;2023-09-19T14:51:18;19.70;91.00
68480;DHT22;55469;48.934;12.050;2023-09-19T14:53:44;19.80;90.90
68480;DHT22;55469;48.934;12.050;2023-09-19T14:56:11;19.80;90.90
68480;DHT22;55469;48.934;12.050;2023-09-19T14:58:38;19.80;90.80
68480;DHT22;55469;48.934;12.050;2023-09-19T15:01:06;19.80;90.80
68480;DHT22;55469;48.934;12.050;2023-09-19T15:03:36;19.80;90.80
68480;DHT22;55469;48.934;12.050;2023-09-19T15:06:07;19.80;90.90
68480;DHT22;55469;48.934;12.050;2023-09-19T15:08:37;19.90;90.90
68480;DHT22;55469;48.934;12.050;2023-09-19T15:11:08;19.80;90.90
68480;DHT22;55469;48.934;12.050;2023-09-19T15:13:35;19.90;90.80
68480;DHT22;55469;48.934;12.050;2023-09-19T15:16:04;19.90;90.80
68480;DHT22;55469;48.934;12.050;2023-09-19T15:18:41;19.90;90.90
68480;DHT22;55469;48.934;12.050;2023-09-19T15:21:11;19.90;91.00
68480;DHT22;55469;48.934;12.050;2023-09-19T15:23:40;19.90;91.00
68480;DHT22;55469;48.934;12.050;2023-09-19T15:26:08;19.90;90.80
68480;DHT22;55469;48.934;12.050;2023-09-19T15:28:36;19.90;90.80
68480;DHT22;55469;48.934;12.050;2023-09-19T15:31:12;19.90;90.80
68480;DHT22;55469;48.934;12.050;2023-09-19T15:33:39;20.00;90.90
68480;DHT22;55469;48.934;12.050;2023-09-19T15:36:08;20.00;90.70
68480;DHT22;55469;48.934;12.050;2023-09-19T15:41:19;20.00;90.70
68480;DHT22;55469;48.934;12.050;2023-09-19T15:43:46;20.00;90.70
68480;DHT22;55469;48.934;12.050;2023-09-19T15:46:12;20.00;90.60
68480;DHT22;55469;48.934;12.050;2023-09-19T15:48:39;20.10;90.70
68480;DHT22;55469;48.934;12.050;2023-09-19T15:51:04;20.00;90.70
68480;DHT22;55469;48.934;12.050;2023-09-19T15:53:45;20.10;90.80
68480;DHT22;55469;48.934;12.050;2023-09-19T15:56:12;20.10;91.00
68480;DHT22;55469;48.934;12.050;2023-09-19T15:58:46;20.10;90.90
68480;DHT22;55469;48.934;12.050;2023-09-19T16:01:13;20.10;90.90
68480;DHT22;55469;48.934;12.050;2023-09-19T16:03:43;20.10;90.90
68480;DHT22;55469;48.934;12.050;2023-09-19T16:06:16;20.10;91.00
68480;DHT22;55469;48.934;12.050;2023-09-19T16:08:47;20.10;91.00
68480;DHT22;55469;48.934;12.050;2023-09-19T16:11:14;20.10;91.00
68480;DHT22;55469;48.934;12.050;2023-09-19T16:13:42;20.10;91.10
68480;DHT22;55469;48.934;12.050;2023-09-19T16:16:09;20.10;91.10
68480;DHT22;55469;48.934;12.050;2023-09-19T16:21:27;20.10;90.90
68480;DHT22;55469;48.934;12.050;2023-09-19T16:23:54;20.10;90.80
68480;DHT22;55469;48.934;12.050;2023-09-19T16:26:21;20.10;90.80
68480;DHT22;55469;48.934;12.050;2023-09-19T16:28:51;20.10;90.80
68480;DHT22;55469;48.934;12.050;2023-09-19T16:31:18;20.10;90.80